createdAt,value
2019-02-21T00:02:00.223Z,7.23
2019-02-21T00:04:29.782Z,7.25
2019-02-21T00:06:59.265Z,7.25
2019-02-21T00:09:28.652Z,7.28
2019-02-21T00:11:57.969Z,7.28
2019-02-21T00:14:27.329Z,7.28
2019-02-21T00:16:56.740Z,7.26
2019-02-21T00:19:26.137Z,7.26
2019-02-21T00:21:55.500Z,7.24
2019-02-21T00:24:24.860Z,7.24
2019-02-21T00:26:54.335Z,7.21
2019-02-21T00:29:23.657Z,7.21
2019-02-21T00:31:53.021Z,7.28
2019-02-21T00:34:22.364Z,7.28
2019-02-21T00:36:51.742Z,7.28
2019-02-21T00:39:21.108Z,7.26
2019-02-21T00:41:50.755Z,7.26
2019-02-21T00:44:20.178Z,7.23
2019-02-21T00:46:49.578Z,7.25
2019-02-21T00:49:18.861Z,7.24
2019-02-21T00:51:48.167Z,7.27
2019-02-21T00:54:17.521Z,7.24
2019-02-21T00:56:46.832Z,7.24
2019-02-21T00:59:16.174Z,7.29
2019-02-21T01:01:45.474Z,7.25
2019-02-21T01:04:14.802Z,7.25
2019-02-21T01:06:44.130Z,7.26
2019-02-21T01:09:13.475Z,7.25
2019-02-21T01:11:42.795Z,7.22
2019-02-21T01:14:12.201Z,7.22
2019-02-21T01:16:41.702Z,7.22
2019-02-21T01:19:11.112Z,7.20
2019-02-21T01:21:40.464Z,7.18
2019-02-21T01:24:09.840Z,7.23
2019-02-21T01:26:39.221Z,7.16
2019-02-21T01:29:08.568Z,7.18
2019-02-21T01:31:37.940Z,7.17
2019-02-21T01:34:07.375Z,7.18
2019-02-21T01:36:49.081Z,7.18
2019-02-21T01:39:18.353Z,7.20
2019-02-21T01:41:47.665Z,7.21
2019-02-21T01:44:17.023Z,7.19
2019-02-21T01:46:46.462Z,7.19
2019-02-21T01:49:15.778Z,7.23
2019-02-21T01:51:45.061Z,7.16
2019-02-21T01:54:14.395Z,7.16
2019-02-21T01:56:46.765Z,7.22
2019-02-21T01:59:16.167Z,7.22
2019-02-21T02:01:45.497Z,7.22
2019-02-21T02:04:14.821Z,7.21
2019-02-21T02:06:44.157Z,7.21
2019-02-21T02:09:13.577Z,7.20
2019-02-21T02:11:42.903Z,7.20
2019-02-21T02:14:12.255Z,7.25
2019-02-21T02:16:41.556Z,7.28
2019-02-21T02:19:10.830Z,7.34
2019-02-21T02:21:40.133Z,7.34
2019-02-21T02:24:09.531Z,7.39
2019-02-21T02:26:38.861Z,7.38
2019-02-21T02:29:08.185Z,7.37
2019-02-21T02:31:37.519Z,7.40
2019-02-21T02:34:06.838Z,7.42
2019-02-21T02:36:36.260Z,7.42
2019-02-21T02:39:05.866Z,7.46
2019-02-21T02:41:35.251Z,7.46
2019-02-21T02:44:04.551Z,7.46
2019-02-21T02:46:33.898Z,7.50
2019-02-21T02:49:03.231Z,7.50
2019-02-21T02:51:32.633Z,7.50
2019-02-21T02:54:01.929Z,7.52
2019-02-21T02:56:31.237Z,7.54
2019-02-21T02:59:00.599Z,7.56
2019-02-21T03:01:34.891Z,7.52
2019-02-21T03:03:59.355Z,7.51
2019-02-21T03:06:28.666Z,7.51
2019-02-21T03:08:58.011Z,7.55
2019-02-21T03:11:27.349Z,7.52
2019-02-21T03:13:56.826Z,7.47
2019-02-21T03:16:26.175Z,7.47
2019-02-21T03:18:55.482Z,7.48
2019-02-21T03:21:24.778Z,7.49
2019-02-21T03:23:54.106Z,7.48
2019-02-21T03:26:23.395Z,7.52
2019-02-21T03:28:52.785Z,7.52
2019-02-21T03:31:22.083Z,7.59
2019-02-21T03:33:51.397Z,7.54
2019-02-21T03:36:20.733Z,7.54
2019-02-21T03:38:50.284Z,7.54
2019-02-21T03:41:19.748Z,7.54
2019-02-21T03:43:49.193Z,7.54
2019-02-21T03:46:18.586Z,7.53
2019-02-21T03:48:47.894Z,7.59
2019-02-21T03:51:17.218Z,7.73
2019-02-21T03:53:46.556Z,7.64
2019-02-21T03:56:15.885Z,7.74
2019-02-21T03:58:45.278Z,7.76
2019-02-21T04:01:14.610Z,7.80
2019-02-21T04:03:43.947Z,7.89
2019-02-21T04:06:13.292Z,7.89
2019-02-21T04:08:42.703Z,7.89
2019-02-21T04:11:12.098Z,7.90
2019-02-21T04:13:41.407Z,7.89
2019-02-21T04:16:10.756Z,7.98
2019-02-21T04:18:40.288Z,7.95
2019-02-21T04:21:09.584Z,7.95
2019-02-21T04:23:38.962Z,7.93
2019-02-21T04:26:08.381Z,7.96
2019-02-21T04:28:37.781Z,7.96
2019-02-21T04:31:07.087Z,7.99
2019-02-21T04:33:36.489Z,7.90
2019-02-21T04:36:05.877Z,7.90
2019-02-21T04:38:35.187Z,7.95
2019-02-21T04:41:04.746Z,7.95
2019-02-21T04:43:34.097Z,7.98
2019-02-21T04:46:03.498Z,8.00
2019-02-21T04:48:32.788Z,7.96
2019-02-21T04:51:02.099Z,8.03
2019-02-21T04:53:31.374Z,8.06
2019-02-21T04:56:00.705Z,8.01
2019-02-21T04:58:29.999Z,7.99
2019-02-21T05:00:59.298Z,8.03
2019-02-21T05:03:28.591Z,8.04
2019-02-21T05:05:58.041Z,8.01
2019-02-21T05:08:27.332Z,8.00
2019-02-21T05:10:56.732Z,8.07
2019-02-21T05:13:26.110Z,8.07
2019-02-21T05:15:55.527Z,8.01
2019-02-21T05:18:24.796Z,8.00
2019-02-21T05:20:54.173Z,8.03
2019-02-21T05:23:23.524Z,8.03
2019-02-21T05:25:52.812Z,8.07
2019-02-21T05:28:32.565Z,8.07
2019-02-21T05:31:08.810Z,8.11
2019-02-21T05:34:09.125Z,8.16
2019-02-21T05:37:00.169Z,8.14
2019-02-21T05:39:41.934Z,8.15
2019-02-21T05:42:29.910Z,8.07
2019-02-21T05:45:11.688Z,8.12
2019-02-21T05:47:46.435Z,8.11
2019-02-21T05:50:41.077Z,8.10
2019-02-21T05:53:24.133Z,8.10
2019-02-21T05:56:10.102Z,8.11
2019-02-21T05:58:49.837Z,8.08
2019-02-21T06:01:44.629Z,8.14
2019-02-21T06:04:31.869Z,8.06
2019-02-21T06:07:11.967Z,7.46
2019-02-21T06:09:47.029Z,8.10
2019-02-21T06:12:39.757Z,8.06
2019-02-21T06:15:28.151Z,8.09
2019-02-21T06:18:14.203Z,8.05
2019-02-21T06:20:58.790Z,8.01
2019-02-21T06:23:50.212Z,7.97
2019-02-21T06:26:33.971Z,8.00
2019-02-21T06:29:22.754Z,8.00
2019-02-21T06:31:52.335Z,7.95
2019-02-21T06:34:22.180Z,8.01
2019-02-21T06:36:51.420Z,8.01
2019-02-21T06:39:24.931Z,7.98
2019-02-21T06:41:59.777Z,7.96
2019-02-21T06:44:22.404Z,8.00
2019-02-21T06:46:51.682Z,7.95
2019-02-21T06:49:31.827Z,7.98
2019-02-21T06:51:50.438Z,7.98
2019-02-21T06:54:19.617Z,7.96
2019-02-21T06:56:48.955Z,7.96
2019-02-21T06:59:18.517Z,8.04
2019-02-21T07:01:47.855Z,7.99
2019-02-21T07:04:17.183Z,7.99
2019-02-21T07:06:46.455Z,8.15
2019-02-21T07:09:18.939Z,8.14
2019-02-21T07:11:48.189Z,8.15
2019-02-21T07:14:17.598Z,8.15
2019-02-21T07:16:47.382Z,8.22
2019-02-21T07:19:16.663Z,8.22
2019-02-21T07:21:45.927Z,8.19
2019-02-21T07:24:15.226Z,8.16
2019-02-21T07:26:44.497Z,8.28
2019-02-21T07:29:13.804Z,8.28
2019-02-21T07:31:45.049Z,8.34
2019-02-21T07:34:14.428Z,8.33
2019-02-21T07:36:43.932Z,8.42
2019-02-21T07:39:17.196Z,8.42
2019-02-21T07:41:42.608Z,8.51
2019-02-21T07:44:12.647Z,8.51
2019-02-21T07:46:41.435Z,8.55
2019-02-21T07:49:10.791Z,8.57
2019-02-21T07:51:41.569Z,8.56
2019-02-21T07:54:09.424Z,8.59
2019-02-21T07:56:42.073Z,8.66
2019-02-21T07:59:08.163Z,8.64
2019-02-21T08:01:37.561Z,8.57
2019-02-21T08:04:06.901Z,8.64
2019-02-21T08:06:36.167Z,8.75
2019-02-21T08:09:06.269Z,8.76
2019-02-21T08:11:35.693Z,8.78
2019-02-21T08:14:04.999Z,8.81
2019-02-21T08:16:34.383Z,8.93
2019-02-21T08:19:03.716Z,8.99
2019-02-21T08:21:33.227Z,9.16
2019-02-21T08:24:02.552Z,9.13
2019-02-21T08:26:31.910Z,9.18
2019-02-21T08:29:01.284Z,9.11
2019-02-21T08:31:30.576Z,9.04
2019-02-21T08:34:09.574Z,9.07
2019-02-21T08:36:39.089Z,9.08
2019-02-21T08:39:09.924Z,8.97
2019-02-21T08:41:39.195Z,9.02
2019-02-21T08:44:08.627Z,8.99
2019-02-21T08:46:38.052Z,9.00
2019-02-21T08:49:10.462Z,9.01
2019-02-21T08:51:39.905Z,9.03
2019-02-21T08:54:11.371Z,9.08
2019-02-21T08:56:38.558Z,9.13
2019-02-21T08:59:08.026Z,9.20
2019-02-21T09:01:37.476Z,9.25
2019-02-21T09:04:13.355Z,9.38
2019-02-21T09:06:36.209Z,9.43
2019-02-21T09:09:05.656Z,9.59
2019-02-21T09:11:34.931Z,9.72
2019-02-21T09:14:04.289Z,9.81
2019-02-21T09:16:33.552Z,9.85
2019-02-21T09:19:02.863Z,9.77
2019-02-21T09:21:32.164Z,9.81
2019-02-21T09:24:01.479Z,9.88
2019-02-21T09:26:30.919Z,9.99
2019-02-21T09:29:00.294Z,10.01
2019-02-21T09:31:29.594Z,10.20
2019-02-21T09:33:58.863Z,10.30
2019-02-21T09:36:28.132Z,10.23
2019-02-21T09:38:57.657Z,10.30
2019-02-21T09:41:28.683Z,10.34
2019-02-21T09:43:56.361Z,10.47
2019-02-21T09:46:25.706Z,10.51
2019-02-21T09:48:57.377Z,10.52
2019-02-21T09:51:30.165Z,10.57
2019-02-21T09:53:59.423Z,10.64
2019-02-21T09:56:30.719Z,10.59
2019-02-21T09:58:58.099Z,10.65
2019-02-21T10:01:27.486Z,10.85
2019-02-21T10:03:57.415Z,11.10
2019-02-21T10:06:26.129Z,11.02
2019-02-21T10:08:55.553Z,10.99
2019-02-21T10:11:24.891Z,10.86
2019-02-21T10:13:54.160Z,10.97
2019-02-21T10:16:23.750Z,11.00
2019-02-21T10:18:53.000Z,11.10
2019-02-21T10:21:23.877Z,10.78
2019-02-21T10:23:53.169Z,10.88
2019-02-21T10:26:23.011Z,10.91
2019-02-21T10:28:52.277Z,10.97
2019-02-21T10:31:21.954Z,11.09
2019-02-21T10:33:51.392Z,11.15
2019-02-21T10:36:20.693Z,11.05
2019-02-21T10:38:50.037Z,11.10
2019-02-21T10:41:19.454Z,11.10
2019-02-21T10:43:48.781Z,11.06
2019-02-21T10:46:18.300Z,11.11
2019-02-21T10:48:47.781Z,11.29
2019-02-21T10:51:17.162Z,11.48
2019-02-21T10:53:46.462Z,11.58
2019-02-21T10:56:15.778Z,11.74
2019-02-21T10:58:45.164Z,12.03
2019-02-21T11:01:14.457Z,12.14
2019-02-21T11:03:43.961Z,12.05
2019-02-21T11:06:13.341Z,11.87
2019-02-21T11:08:44.773Z,12.00
2019-02-21T11:11:11.911Z,11.91
2019-02-21T11:13:41.192Z,11.75
2019-02-21T11:16:10.497Z,11.70
2019-02-21T11:18:39.794Z,11.75
2019-02-21T11:21:09.079Z,11.77
2019-02-21T11:23:38.416Z,11.80
2019-02-21T11:26:07.727Z,11.89
2019-02-21T11:28:37.070Z,11.71
2019-02-21T11:31:06.401Z,11.47
2019-02-21T11:33:35.722Z,11.34
2019-02-21T11:36:04.998Z,11.28
2019-02-21T11:38:34.254Z,11.17
2019-02-21T11:41:03.591Z,11.02
2019-02-21T11:43:32.898Z,10.93
2019-02-21T11:46:02.217Z,10.86
2019-02-21T11:48:31.475Z,10.81
2019-02-21T11:51:00.749Z,10.76
2019-02-21T11:53:30.052Z,10.83
2019-02-21T11:55:59.349Z,10.72
2019-02-21T11:58:28.665Z,10.75
2019-02-21T12:00:57.928Z,10.75
2019-02-21T12:03:27.237Z,10.88
2019-02-21T12:05:56.485Z,10.92
2019-02-21T12:08:25.741Z,11.15
2019-02-21T12:10:55.063Z,11.31
2019-02-21T12:13:24.367Z,11.63
2019-02-21T12:15:53.634Z,11.81
2019-02-21T12:18:22.910Z,11.70
2019-02-21T12:20:52.227Z,11.62
2019-02-21T12:23:21.496Z,11.63
2019-02-21T12:25:50.771Z,11.69
2019-02-21T12:28:20.053Z,11.67
2019-02-21T12:30:49.377Z,11.67
2019-02-21T12:33:18.671Z,11.71
2019-02-21T12:35:47.973Z,11.71
2019-02-21T12:38:17.293Z,11.83
2019-02-21T12:40:46.696Z,11.81
2019-02-21T12:43:16.044Z,11.84
2019-02-21T12:45:45.398Z,11.92
2019-02-21T12:48:14.696Z,12.12
2019-02-21T12:50:44.694Z,12.21
2019-02-21T12:53:13.309Z,12.00
2019-02-21T12:55:42.606Z,12.13
2019-02-21T12:58:11.909Z,11.98
2019-02-21T13:00:41.330Z,11.89
2019-02-21T13:03:10.611Z,11.87
2019-02-21T13:05:41.379Z,11.84
2019-02-21T13:08:09.440Z,11.85
2019-02-21T13:10:38.719Z,11.88
2019-02-21T13:13:08.015Z,11.91
2019-02-21T13:15:37.334Z,11.88
2019-02-21T13:18:15.506Z,11.87
2019-02-21T13:20:36.029Z,11.81
2019-02-21T13:23:05.407Z,11.80
2019-02-21T13:25:34.698Z,11.77
2019-02-21T13:28:04.040Z,11.69
2019-02-21T13:30:33.405Z,11.67
2019-02-21T13:33:02.757Z,11.85
2019-02-21T13:35:32.023Z,11.81
2019-02-21T13:38:01.462Z,11.73
2019-02-21T13:40:30.802Z,11.56
2019-02-21T13:43:00.113Z,11.74
2019-02-21T13:45:29.402Z,12.00
2019-02-21T13:47:58.723Z,12.25
2019-02-21T13:50:28.129Z,11.96
2019-02-21T13:52:57.462Z,11.80
2019-02-21T13:55:26.771Z,11.65
2019-02-21T13:57:56.039Z,11.54
2019-02-21T14:00:25.356Z,11.50
2019-02-21T14:02:54.631Z,11.48
2019-02-21T14:05:23.888Z,11.27
2019-02-21T14:07:53.271Z,11.42
2019-02-21T14:10:22.494Z,11.42
2019-02-21T14:12:51.821Z,11.36
2019-02-21T14:15:22.831Z,11.39
2019-02-21T14:17:52.175Z,11.47
2019-02-21T14:20:21.473Z,11.49
2019-02-21T14:22:50.763Z,11.43
2019-02-21T14:25:20.095Z,11.37
2019-02-21T14:27:49.385Z,11.30
2019-02-21T14:30:18.779Z,11.42
2019-02-21T14:32:48.060Z,11.43
2019-02-21T14:35:17.358Z,11.46
2019-02-21T14:37:46.668Z,11.43
2019-02-21T14:40:16.020Z,11.28
2019-02-21T14:42:45.421Z,11.26
2019-02-21T14:45:16.277Z,11.44
2019-02-21T14:47:45.587Z,11.47
2019-02-21T14:50:14.847Z,11.51
2019-02-21T14:52:44.132Z,11.43
2019-02-21T14:55:13.832Z,11.29
2019-02-21T14:57:43.128Z,11.18
2019-02-21T15:00:15.306Z,11.13
2019-02-21T15:02:44.596Z,11.04
2019-02-21T15:05:13.958Z,11.03
2019-02-21T15:07:43.269Z,10.92
2019-02-21T15:10:12.640Z,10.88
2019-02-21T15:12:42.065Z,10.83
2019-02-21T15:15:14.386Z,10.69
2019-02-21T15:17:43.727Z,10.63
2019-02-21T15:20:13.749Z,10.50
2019-02-21T15:22:43.240Z,10.55
2019-02-21T15:25:12.528Z,10.50
2019-02-21T15:27:41.847Z,10.55
2019-02-21T15:30:13.554Z,10.53
2019-02-21T15:32:44.761Z,10.50
2019-02-21T15:35:12.195Z,10.45
2019-02-21T15:37:41.664Z,10.48
2019-02-21T15:40:10.973Z,10.47
2019-02-21T15:42:40.260Z,10.46
2019-02-21T15:45:21.945Z,10.42
2019-02-21T15:47:40.893Z,10.47
2019-02-21T15:50:11.505Z,10.28
2019-02-21T15:52:40.828Z,10.12
2019-02-21T15:55:12.700Z,10.09
2019-02-21T15:57:40.564Z,10.07
2019-02-21T16:00:11.817Z,10.03
2019-02-21T16:02:41.301Z,10.01
2019-02-21T16:05:10.812Z,10.00
2019-02-21T16:07:39.983Z,9.96
2019-02-21T16:10:11.346Z,9.94
2019-02-21T16:12:43.843Z,9.98
2019-02-21T16:15:16.073Z,10.01
2019-02-21T16:17:42.085Z,10.09
2019-02-21T16:20:12.409Z,10.09
2019-02-21T16:22:41.744Z,10.05
2019-02-21T16:25:13.087Z,10.08
2019-02-21T16:27:42.363Z,10.04
2019-02-21T16:30:12.761Z,9.99
2019-02-21T16:32:40.988Z,9.84
2019-02-21T16:35:11.021Z,9.68
2019-02-21T16:37:40.409Z,9.64
2019-02-21T16:40:11.263Z,9.63
2019-02-21T16:42:40.758Z,9.57
2019-02-21T16:45:11.378Z,9.54
2019-02-21T16:47:41.011Z,9.56
2019-02-21T16:50:11.254Z,9.54
2019-02-21T16:52:40.623Z,9.57
2019-02-21T16:55:12.178Z,9.54
2019-02-21T16:57:41.484Z,9.57
2019-02-21T17:00:11.807Z,9.52
2019-02-21T17:02:41.156Z,9.44
2019-02-21T17:05:10.599Z,9.44
2019-02-21T17:07:40.018Z,9.50
2019-02-21T17:10:09.492Z,9.45
2019-02-21T17:12:38.849Z,9.42
2019-02-21T17:15:09.351Z,9.44
2019-02-21T17:17:38.699Z,9.33
2019-02-21T17:20:09.875Z,9.39
2019-02-21T17:22:39.330Z,9.34
2019-02-21T17:25:09.755Z,9.30
2019-02-21T17:27:39.107Z,9.30
2019-02-21T17:30:09.565Z,9.30
2019-02-21T17:32:38.866Z,9.29
2019-02-21T17:35:08.239Z,9.34
2019-02-21T17:37:37.662Z,9.29
2019-02-21T17:40:08.622Z,9.30
2019-02-21T17:42:37.940Z,9.26
2019-02-21T17:45:08.040Z,9.29
2019-02-21T17:47:37.441Z,9.26
2019-02-21T17:50:07.777Z,9.28
2019-02-21T17:52:37.093Z,9.24
2019-02-21T17:55:06.610Z,9.23
2019-02-21T17:57:37.007Z,9.26
2019-02-21T18:00:07.433Z,9.27
2019-02-21T18:02:36.822Z,9.22
2019-02-21T18:05:06.531Z,9.12
2019-02-21T18:07:36.731Z,9.17
2019-02-21T18:10:06.033Z,9.21
2019-02-21T18:12:35.368Z,9.20
2019-02-21T18:15:05.310Z,9.17
2019-02-21T18:17:34.629Z,9.17
2019-02-21T18:20:04.010Z,9.17
2019-02-21T18:22:33.315Z,9.18
2019-02-21T18:25:02.605Z,9.14
2019-02-21T18:27:31.987Z,9.16
2019-02-21T18:30:01.357Z,9.19
2019-02-21T18:32:30.793Z,9.15
2019-02-21T18:35:00.318Z,9.19
2019-02-21T18:37:29.451Z,9.22
2019-02-21T18:39:58.794Z,9.17
2019-02-21T18:42:28.179Z,9.16
2019-02-21T18:44:57.524Z,9.16
2019-02-21T18:47:26.915Z,9.21
2019-02-21T18:49:56.247Z,9.16
2019-02-21T18:52:25.607Z,9.14
2019-02-21T18:54:54.897Z,9.17
2019-02-21T18:57:24.195Z,9.17
2019-02-21T18:59:53.590Z,9.12
2019-02-21T19:02:22.930Z,9.08
2019-02-21T19:04:52.247Z,9.04
2019-02-21T19:07:21.634Z,9.01
2019-02-21T19:09:50.999Z,9.04
2019-02-21T19:12:20.336Z,9.07
2019-02-21T19:14:49.735Z,9.02
2019-02-21T19:17:19.062Z,9.04
2019-02-21T19:19:48.369Z,9.05
2019-02-21T19:22:17.672Z,9.02
2019-02-21T19:24:48.365Z,8.95
2019-02-21T19:27:17.727Z,9.05
2019-02-21T19:29:47.020Z,9.00
2019-02-21T19:32:16.437Z,9.03
2019-02-21T19:34:45.704Z,9.00
2019-02-21T19:37:15.019Z,8.99
2019-02-21T19:39:44.328Z,8.93
2019-02-21T19:42:13.661Z,8.95
2019-02-21T19:44:42.977Z,8.97
2019-02-21T19:47:12.383Z,8.97
2019-02-21T19:49:41.987Z,8.92
2019-02-21T19:52:11.373Z,8.88
2019-02-21T19:54:40.677Z,8.90
2019-02-21T19:57:10.062Z,8.86
2019-02-21T19:59:39.360Z,8.87
2019-02-21T20:02:08.664Z,8.87
2019-02-21T20:04:37.991Z,8.93
2019-02-21T20:07:07.269Z,8.87
2019-02-21T20:09:36.589Z,8.91
2019-02-21T20:12:05.920Z,8.89
2019-02-21T20:14:35.307Z,8.92
2019-02-21T20:17:04.626Z,8.90
2019-02-21T20:19:34.021Z,8.89
2019-02-21T20:22:03.389Z,8.84
2019-02-21T20:24:32.669Z,8.91
2019-02-21T20:27:02.004Z,8.94
2019-02-21T20:29:31.355Z,8.86
2019-02-21T20:32:00.657Z,8.96
2019-02-21T20:34:29.961Z,8.94
2019-02-21T20:36:59.294Z,8.90
2019-02-21T20:39:28.611Z,8.92
2019-02-21T20:41:57.996Z,8.91
2019-02-21T20:44:27.318Z,8.89
2019-02-21T20:46:56.603Z,8.88
2019-02-21T20:49:25.926Z,8.92
2019-02-21T20:51:56.795Z,8.94
2019-02-21T20:54:26.172Z,8.89
2019-02-21T20:56:55.546Z,8.89
2019-02-21T20:59:24.846Z,8.94
2019-02-21T21:01:54.191Z,8.89
2019-02-21T21:04:23.550Z,8.89
2019-02-21T21:06:52.896Z,8.91
2019-02-21T21:09:22.214Z,8.87
2019-02-21T21:11:51.588Z,8.89
2019-02-21T21:14:20.959Z,8.88
2019-02-21T21:16:50.289Z,8.88
2019-02-21T21:19:19.568Z,8.88
2019-02-21T21:21:48.989Z,8.92
2019-02-21T21:24:18.374Z,8.91
2019-02-21T21:26:47.682Z,8.94
2019-02-21T21:29:16.974Z,8.91
2019-02-21T21:31:46.291Z,8.91
2019-02-21T21:34:15.575Z,8.86
2019-02-21T21:36:44.895Z,8.87
2019-02-21T21:39:14.202Z,8.86
2019-02-21T21:41:43.506Z,8.89
2019-02-21T21:44:12.799Z,8.93
2019-02-21T21:46:42.060Z,8.88
2019-02-21T21:49:11.490Z,8.94
2019-02-21T21:51:40.911Z,8.96
2019-02-21T21:54:10.222Z,8.91
2019-02-21T21:56:39.613Z,8.59
2019-02-21T21:59:08.985Z,8.88
2019-02-21T22:01:38.433Z,8.92
2019-02-21T22:04:07.909Z,8.86
2019-02-21T22:06:37.209Z,8.90
2019-02-21T22:09:06.797Z,8.84
2019-02-21T22:11:36.061Z,8.88
2019-02-21T22:14:05.339Z,8.84
2019-02-21T22:16:34.636Z,8.84
2019-02-21T22:19:03.908Z,8.82
2019-02-21T22:21:33.238Z,8.82
2019-02-21T22:24:04.893Z,8.78
2019-02-21T22:26:34.267Z,8.78
2019-02-21T22:29:03.620Z,8.77
2019-02-21T22:31:32.929Z,8.79
2019-02-21T22:34:02.312Z,8.76
2019-02-21T22:36:31.888Z,8.75
2019-02-21T22:39:02.114Z,8.78
2019-02-21T22:41:30.666Z,8.73
2019-02-21T22:44:00.026Z,8.72
2019-02-21T22:46:29.293Z,8.72
2019-02-21T22:48:58.579Z,8.70
2019-02-21T22:51:27.936Z,8.66
2019-02-21T22:53:59.278Z,8.61
2019-02-21T22:56:28.740Z,8.64
2019-02-21T22:58:58.055Z,8.65
2019-02-21T23:01:36.334Z,8.67
2019-02-21T23:04:46.815Z,8.68
2019-02-21T23:07:50.035Z,8.58
2019-02-21T23:10:19.432Z,8.65
2019-02-21T23:12:48.741Z,8.68
2019-02-21T23:15:20.840Z,8.62
2019-02-21T23:17:50.311Z,8.57
2019-02-21T23:20:19.731Z,8.65
2019-02-21T23:22:48.996Z,8.59
2019-02-21T23:25:18.358Z,8.59
2019-02-21T23:27:50.369Z,8.59
2019-02-21T23:30:19.721Z,8.65
2019-02-21T23:32:49.085Z,8.57
2019-02-21T23:35:20.310Z,8.59
2019-02-21T23:37:49.808Z,8.59
2019-02-21T23:40:19.245Z,8.56
2019-02-21T23:42:48.493Z,8.58
2019-02-21T23:45:17.785Z,8.55
2019-02-21T23:47:49.899Z,8.58
2019-02-21T23:50:16.462Z,8.61
2019-02-21T23:52:45.877Z,8.59
2019-02-21T23:55:15.151Z,8.59
2019-02-21T23:57:44.427Z,8.58
